Time;durP1;ratioP1;P1;durP2;ratioP2;P2;SDS_P1;SDS_P2;PMS_P1;PMS_P2;Temp;Humidity;BMP_temperature;BMP_pressure;BME280_temperature;BME280_humidity;BME280_pressure;Samples;Min_cycle;Max_cycle;Signal;HPM_P1;HPM_P2
2022/06/29 00:00:25;;;;;;;7.37;6.80;;;;;;;;;;5072347;22;20553;-74
2022/06/29 00:02:51;;;;;;;7.20;6.60;;;;;;;;;;5057991;28;20475;-74
2022/06/29 00:05:18;;;;;;;7.30;6.70;;;;;;;;;;5059268;28;20833;-74
2022/06/29 00:07:45;;;;;;;8.73;8.03;;;;;;;;;;5057494;28;20480;-75
2022/06/29 00:10:12;;;;;;;7.93;7.23;;;;;;;;;;5051733;28;20476;-74
2022/06/29 00:12:40;;;;;;;7.23;6.63;;;;;;;;;;5039218;28;20484;-74
2022/06/29 00:15:07;;;;;;;7.80;7.10;;;;;;;;;;5037117;28;20475;-74
2022/06/29 00:17:33;;;;;;;9.00;8.07;;;;;;;;;;5040041;28;20472;-75
2022/06/29 00:20:00;;;;;;;9.77;8.83;;;;;;;;;;5039411;28;20483;-74
2022/06/29 00:22:27;;;;;;;9.90;9.00;;;;;;;;;;5039232;28;20469;-75
2022/06/29 00:24:53;;;;;;;9.90;8.90;;;;;;;;;;5038086;28;20464;-74
2022/06/29 00:27:20;;;;;;;9.70;8.70;;;;;;;;;;5036938;28;20483;-75
2022/06/29 00:29:47;;;;;;;9.07;8.20;;;;;;;;;;5039204;28;20575;-75
2022/06/29 00:32:14;;;;;;;10.70;9.90;;;;;;;;;;5037337;28;20495;-74
2022/06/29 00:34:40;;;;;;;10.23;9.33;;;;;;;;;;5039982;28;20487;-75
2022/06/29 00:37:07;;;;;;;10.07;9.10;;;;;;;;;;5038128;28;21024;-75
2022/06/29 00:39:33;;;;;;;10.33;9.43;;;;;;;;;;5037409;28;20452;-74
2022/06/29 00:41:59;;;;;;;9.90;9.07;;;;;;;;;;5039305;28;20475;-75
2022/06/29 00:44:26;;;;;;;12.40;10.97;;;;;;;;;;5040863;28;20440;-74
2022/06/29 00:46:55;;;;;;;10.80;9.90;;;;;;;;;;5038478;28;20479;-74
2022/06/29 00:49:22;;;;;;;10.00;9.20;;;;;;;;;;5037616;28;20576;-75
2022/06/29 00:51:49;;;;;;;10.47;9.57;;;;;;;;;;5037323;28;20487;-75
2022/06/29 00:54:18;;;;;;;10.90;10.10;;;;;;;;;;5038468;28;21007;-74
2022/06/29 00:56:44;;;;;;;10.90;9.80;;;;;;;;;;5038108;28;20832;-75
2022/06/29 00:59:12;;;;;;;12.33;11.13;;;;;;;;;;5039797;28;21039;-74
2022/06/29 01:01:39;;;;;;;11.40;10.50;;;;;;;;;;5039379;28;20526;-75
2022/06/29 01:04:07;;;;;;;10.17;9.37;;;;;;;;;;5037201;28;21000;-74
2022/06/29 01:06:34;;;;;;;11.00;10.10;;;;;;;;;;5037613;28;21152;-75
2022/06/29 01:09:01;;;;;;;11.60;10.60;;;;;;;;;;5039115;28;20455;-74
2022/06/29 01:11:27;;;;;;;11.40;10.50;;;;;;;;;;5038821;28;20480;-74
2022/06/29 01:13:53;;;;;;;10.67;9.90;;;;;;;;;;5036976;28;20483;-74
2022/06/29 01:16:20;;;;;;;12.07;11.07;;;;;;;;;;5038261;28;20483;-75
2022/06/29 01:18:46;;;;;;;10.70;9.67;;;;;;;;;;5037229;28;20483;-74
2022/06/29 01:21:14;;;;;;;12.40;11.07;;;;;;;;;;5037765;28;20482;-75
2022/06/29 01:23:41;;;;;;;10.10;9.07;;;;;;;;;;5039107;28;20482;-74
2022/06/29 01:26:09;;;;;;;11.27;10.30;;;;;;;;;;5038944;28;20457;-74
2022/06/29 01:28:35;;;;;;;11.40;9.93;;;;;;;;;;5038954;28;20572;-74
2022/06/29 01:31:02;;;;;;;11.03;9.83;;;;;;;;;;5038368;28;20485;-75
2022/06/29 01:33:28;;;;;;;10.97;9.87;;;;;;;;;;5039527;28;20849;-74
2022/06/29 01:35:54;;;;;;;10.53;9.70;;;;;;;;;;5038750;28;20499;-74
2022/06/29 01:38:21;;;;;;;14.17;9.90;;;;;;;;;;5038449;28;20475;-74
2022/06/29 01:40:49;;;;;;;10.23;9.20;;;;;;;;;;5039868;28;20479;-74
2022/06/29 01:43:15;;;;;;;10.93;9.83;;;;;;;;;;5039287;28;20486;-74
2022/06/29 01:48:13;;;;;;;10.90;10.00;;;;;;;;;;5038697;28;20826;-74
2022/06/29 01:50:40;;;;;;;10.20;9.40;;;;;;;;;;5037376;28;20484;-74
2022/06/29 01:53:06;;;;;;;11.47;9.80;;;;;;;;;;5036436;28;20471;-74
2022/06/29 01:55:32;;;;;;;17.73;10.47;;;;;;;;;;5038088;28;20502;-74
2022/06/29 01:58:00;;;;;;;10.50;9.70;;;;;;;;;;5038779;28;21038;-74
2022/06/29 02:00:26;;;;;;;10.63;9.73;;;;;;;;;;5038085;28;20480;-74
2022/06/29 02:02:52;;;;;;;10.97;9.87;;;;;;;;;;5038851;28;20481;-74
2022/06/29 02:05:19;;;;;;;10.43;9.43;;;;;;;;;;5037150;28;20459;-75
2022/06/29 02:07:46;;;;;;;9.40;8.60;;;;;;;;;;5036671;28;20478;-74
2022/06/29 02:10:12;;;;;;;10.50;9.50;;;;;;;;;;5037960;28;20478;-75
2022/06/29 02:12:38;;;;;;;11.27;9.43;;;;;;;;;;5038524;28;20482;-74
2022/06/29 02:15:07;;;;;;;9.77;8.97;;;;;;;;;;5036053;28;20492;-74
2022/06/29 02:17:33;;;;;;;9.37;8.47;;;;;;;;;;5038478;28;20480;-74
2022/06/29 02:20:00;;;;;;;9.47;8.67;;;;;;;;;;5038630;28;20465;-74
2022/06/29 02:22:26;;;;;;;9.53;8.30;;;;;;;;;;5037581;28;20860;-74
2022/06/29 02:24:52;;;;;;;11.57;10.47;;;;;;;;;;5039521;28;20474;-74
2022/06/29 02:27:19;;;;;;;9.93;9.07;;;;;;;;;;5039952;28;20468;-74
2022/06/29 02:29:45;;;;;;;9.90;9.10;;;;;;;;;;5041704;28;20455;-74
2022/06/29 02:34:56;;;;;;;9.47;8.47;;;;;;;;;;5041608;28;20970;-74
2022/06/29 02:37:23;;;;;;;10.40;9.33;;;;;;;;;;5040900;28;20486;-74
2022/06/29 02:39:49;;;;;;;12.63;9.87;;;;;;;;;;5041350;28;20487;-74
2022/06/29 02:42:15;;;;;;;10.33;9.43;;;;;;;;;;5040244;28;20483;-74
2022/06/29 02:44:42;;;;;;;9.90;9.07;;;;;;;;;;5040973;28;20982;-74
2022/06/29 02:47:09;;;;;;;13.33;8.93;;;;;;;;;;5038876;28;20480;-74
2022/06/29 02:49:37;;;;;;;9.70;8.80;;;;;;;;;;5041554;28;20507;-74
2022/06/29 02:52:03;;;;;;;12.80;9.20;;;;;;;;;;5040358;28;20476;-74
2022/06/29 02:54:30;;;;;;;10.20;9.30;;;;;;;;;;5041525;28;20986;-74
2022/06/29 02:56:56;;;;;;;8.43;7.80;;;;;;;;;;5039863;28;20825;-75
2022/06/29 02:59:22;;;;;;;7.97;7.37;;;;;;;;;;5042354;28;20456;-74
2022/06/29 03:01:49;;;;;;;8.20;7.60;;;;;;;;;;5041569;28;20487;-75
2022/06/29 03:04:15;;;;;;;8.10;7.40;;;;;;;;;;5042667;28;20464;-74
2022/06/29 03:06:43;;;;;;;8.00;7.27;;;;;;;;;;5042177;28;20448;-75
2022/06/29 03:09:09;;;;;;;9.27;8.00;;;;;;;;;;5042206;28;20913;-74
2022/06/29 03:11:36;;;;;;;7.70;7.00;;;;;;;;;;5042205;28;20473;-75
2022/06/29 03:14:02;;;;;;;11.47;8.00;;;;;;;;;;5040877;28;20452;-74
2022/06/29 03:16:28;;;;;;;8.70;8.00;;;;;;;;;;5041445;28;20488;-74
2022/06/29 03:18:55;;;;;;;9.40;8.60;;;;;;;;;;5040477;28;20480;-74
2022/06/29 03:21:21;;;;;;;7.90;7.10;;;;;;;;;;5041237;28;20480;-74
2022/06/29 03:23:48;;;;;;;9.00;7.40;;;;;;;;;;5039533;28;20486;-74
2022/06/29 03:26:15;;;;;;;9.33;8.53;;;;;;;;;;5041113;28;20463;-74
2022/06/29 03:28:41;;;;;;;8.80;8.00;;;;;;;;;;5040730;28;20482;-74
2022/06/29 03:31:07;;;;;;;8.60;7.70;;;;;;;;;;5041223;28;20483;-74
2022/06/29 03:33:34;;;;;;;6.87;6.27;;;;;;;;;;5037586;28;20473;-74
2022/06/29 03:36:00;;;;;;;7.30;6.70;;;;;;;;;;5040209;28;20480;-74
2022/06/29 03:38:26;;;;;;;8.90;7.17;;;;;;;;;;5040325;28;20467;-74
2022/06/29 03:40:54;;;;;;;8.20;7.50;;;;;;;;;;5039988;28;20725;-74
2022/06/29 03:43:20;;;;;;;12.90;7.13;;;;;;;;;;5041356;28;20478;-74
2022/06/29 03:45:47;;;;;;;8.03;6.50;;;;;;;;;;5040614;28;20926;-74
2022/06/29 03:48:15;;;;;;;8.80;7.90;;;;;;;;;;5036860;28;20484;-74
2022/06/29 03:50:41;;;;;;;8.33;7.63;;;;;;;;;;5038221;28;20571;-74
2022/06/29 03:53:07;;;;;;;7.10;6.60;;;;;;;;;;5039697;28;20480;-74
2022/06/29 03:55:34;;;;;;;7.10;6.50;;;;;;;;;;5041289;28;20480;-74
2022/06/29 03:58:01;;;;;;;7.83;7.23;;;;;;;;;;5040220;28;20476;-74
2022/06/29 04:00:27;;;;;;;7.23;6.63;;;;;;;;;;5038186;28;20488;-74
2022/06/29 04:02:54;;;;;;;8.63;7.67;;;;;;;;;;5039685;28;20976;-74
2022/06/29 04:05:20;;;;;;;7.83;7.23;;;;;;;;;;5038342;28;20456;-74
2022/06/29 04:07:46;;;;;;;8.20;7.40;;;;;;;;;;5040826;28;20471;-74
2022/06/29 04:10:13;;;;;;;7.93;7.13;;;;;;;;;;5038591;28;20472;-74
2022/06/29 04:12:39;;;;;;;7.80;6.97;;;;;;;;;;5040943;28;20476;-74
2022/06/29 04:15:07;;;;;;;7.57;6.87;;;;;;;;;;5040461;28;20460;-74
2022/06/29 04:17:34;;;;;;;7.27;6.67;;;;;;;;;;5041319;28;20492;-74
2022/06/29 04:20:00;;;;;;;7.67;6.97;;;;;;;;;;5038570;28;20481;-74
2022/06/29 04:22:26;;;;;;;7.13;6.60;;;;;;;;;;5036688;28;20480;-74
2022/06/29 04:24:53;;;;;;;7.90;6.70;;;;;;;;;;5039954;28;20464;-74
2022/06/29 04:27:20;;;;;;;7.47;6.87;;;;;;;;;;5038868;28;20492;-74
2022/06/29 04:29:46;;;;;;;7.17;6.10;;;;;;;;;;5038523;28;20519;-74
2022/06/29 04:32:14;;;;;;;7.33;6.63;;;;;;;;;;5035728;28;20961;-74
2022/06/29 04:34:40;;;;;;;7.83;7.07;;;;;;;;;;5039137;28;20464;-75
2022/06/29 04:37:07;;;;;;;12.90;7.00;;;;;;;;;;5038755;28;20835;-74
2022/06/29 04:39:33;;;;;;;7.73;7.03;;;;;;;;;;5038715;28;20467;-74
2022/06/29 04:41:59;;;;;;;7.47;6.77;;;;;;;;;;5040184;28;20472;-75
2022/06/29 04:44:26;;;;;;;13.13;6.50;;;;;;;;;;5039744;28;20967;-74
2022/06/29 04:46:52;;;;;;;8.00;7.20;;;;;;;;;;5038263;28;20460;-74
2022/06/29 04:49:20;;;;;;;6.30;5.80;;;;;;;;;;5034535;28;20465;-74
2022/06/29 04:51:46;;;;;;;9.23;6.50;;;;;;;;;;5037764;28;21168;-74
2022/06/29 04:54:12;;;;;;;7.00;6.30;;;;;;;;;;5039042;28;20456;-74
2022/06/29 04:56:38;;;;;;;6.97;6.37;;;;;;;;;;5040163;28;20483;-75
2022/06/29 04:59:05;;;;;;;7.57;6.63;;;;;;;;;;5038526;28;20464;-75
2022/06/29 05:01:31;;;;;;;7.70;7.00;;;;;;;;;;5036218;28;20493;-75
2022/06/29 05:03:59;;;;;;;6.73;6.13;;;;;;;;;;5037721;28;20890;-74
2022/06/29 05:06:27;;;;;;;7.20;6.60;;;;;;;;;;5040947;28;20453;-74
2022/06/29 05:08:53;;;;;;;6.60;5.90;;;;;;;;;;5039094;28;20506;-75
2022/06/29 05:11:22;;;;;;;7.20;6.50;;;;;;;;;;5036700;28;21041;-75
2022/06/29 05:13:49;;;;;;;6.60;6.00;;;;;;;;;;5039459;28;20473;-75
2022/06/29 05:16:15;;;;;;;7.10;6.50;;;;;;;;;;5034906;28;20487;-74
2022/06/29 05:18:42;;;;;;;6.33;5.83;;;;;;;;;;5038742;28;20511;-74
2022/06/29 05:21:09;;;;;;;8.50;7.50;;;;;;;;;;5039160;28;20517;-74
2022/06/29 05:23:36;;;;;;;6.53;5.93;;;;;;;;;;5037282;28;20476;-75
2022/06/29 05:26:03;;;;;;;6.70;6.20;;;;;;;;;;5037319;28;20456;-75
2022/06/29 05:28:29;;;;;;;7.50;6.90;;;;;;;;;;5037366;28;20480;-74
2022/06/29 05:30:55;;;;;;;7.20;6.17;;;;;;;;;;5037544;28;21022;-74
2022/06/29 05:33:22;;;;;;;7.20;6.47;;;;;;;;;;5038393;28;20479;-74
2022/06/29 05:35:48;;;;;;;6.80;6.23;;;;;;;;;;5038181;28;20464;-75
2022/06/29 05:38:14;;;;;;;6.63;6.00;;;;;;;;;;5032105;28;20483;-75
2022/06/29 05:40:44;;;;;;;8.40;6.53;;;;;;;;;;5037314;28;20480;-74
2022/06/29 05:43:10;;;;;;;8.23;7.53;;;;;;;;;;5038975;28;20526;-75
2022/06/29 05:45:36;;;;;;;7.53;6.70;;;;;;;;;;5039597;28;20475;-75
2022/06/29 05:48:03;;;;;;;8.40;6.27;;;;;;;;;;5040111;28;20476;-75
2022/06/29 05:50:29;;;;;;;8.13;6.77;;;;;;;;;;5040373;28;20460;-75
2022/06/29 05:52:55;;;;;;;6.93;6.40;;;;;;;;;;5038699;28;21002;-75
2022/06/29 05:55:21;;;;;;;6.67;6.17;;;;;;;;;;5039573;28;20447;-75
2022/06/29 05:57:49;;;;;;;7.90;7.17;;;;;;;;;;5039064;28;20498;-75
2022/06/29 06:00:15;;;;;;;9.70;6.13;;;;;;;;;;5052038;23;20484;-74
2022/06/29 06:02:42;;;;;;;7.07;6.40;;;;;;;;;;5061914;28;20986;-74
2022/06/29 06:05:09;;;;;;;7.47;6.80;;;;;;;;;;5063196;28;20455;-75
2022/06/29 06:07:35;;;;;;;9.30;7.00;;;;;;;;;;5061137;28;20558;-75
2022/06/29 06:10:01;;;;;;;8.13;7.40;;;;;;;;;;5061159;28;20450;-75
2022/06/29 06:12:30;;;;;;;6.83;6.33;;;;;;;;;;5060107;28;20466;-75
2022/06/29 06:14:58;;;;;;;9.17;8.27;;;;;;;;;;5061268;28;20467;-74
2022/06/29 06:17:26;;;;;;;7.50;6.80;;;;;;;;;;5060499;28;20985;-75
2022/06/29 06:19:52;;;;;;;7.53;6.83;;;;;;;;;;5060782;28;20439;-75
2022/06/29 06:22:19;;;;;;;7.03;6.40;;;;;;;;;;5062171;28;20497;-75
2022/06/29 06:24:45;;;;;;;7.13;6.53;;;;;;;;;;5057569;28;20463;-75
2022/06/29 06:27:11;;;;;;;24.27;7.83;;;;;;;;;;5059410;28;20481;-75
2022/06/29 06:29:38;;;;;;;7.30;6.67;;;;;;;;;;5061238;28;20448;-74
2022/06/29 06:32:06;;;;;;;5.70;5.30;;;;;;;;;;5061036;28;20499;-75
2022/06/29 06:34:32;;;;;;;7.33;6.57;;;;;;;;;;5060551;28;20440;-75
2022/06/29 06:36:59;;;;;;;7.20;6.60;;;;;;;;;;5061136;28;20470;-75
2022/06/29 06:39:25;;;;;;;7.20;6.50;;;;;;;;;;5062549;28;20464;-75
2022/06/29 06:41:50;;;;;;;8.13;7.43;;;;;;;;;;5061759;28;20475;-75
2022/06/29 06:44:17;;;;;;;7.03;6.43;;;;;;;;;;5059296;28;20430;-75
2022/06/29 06:46:46;;;;;;;7.00;6.43;;;;;;;;;;5062291;28;20216;-75
2022/06/29 06:49:14;;;;;;;8.40;6.90;;;;;;;;;;5061423;28;21313;-75
2022/06/29 06:51:40;;;;;;;12.60;7.07;;;;;;;;;;5059675;28;20496;-76
2022/06/29 06:54:07;;;;;;;6.87;6.20;;;;;;;;;;5061654;28;20915;-75
2022/06/29 06:56:33;;;;;;;8.20;7.40;;;;;;;;;;5060131;28;20483;-75
2022/06/29 06:58:59;;;;;;;8.03;7.07;;;;;;;;;;5062598;28;20443;-74
2022/06/29 07:01:26;;;;;;;7.33;6.63;;;;;;;;;;5059471;28;20506;-75
2022/06/29 07:03:52;;;;;;;8.27;6.97;;;;;;;;;;5060587;28;20488;-75
2022/06/29 07:06:20;;;;;;;8.37;7.57;;;;;;;;;;5060490;28;20454;-75
2022/06/29 07:08:46;;;;;;;8.47;6.93;;;;;;;;;;5059260;28;20471;-75
2022/06/29 07:11:13;;;;;;;7.70;7.07;;;;;;;;;;5059982;28;20467;-75
2022/06/29 07:13:39;;;;;;;7.33;6.67;;;;;;;;;;5060664;28;20854;-75
2022/06/29 07:16:06;;;;;;;7.30;6.60;;;;;;;;;;5059742;28;20934;-75
2022/06/29 07:18:32;;;;;;;6.33;5.83;;;;;;;;;;5057043;28;20464;-75
2022/06/29 07:20:59;;;;;;;7.27;6.73;;;;;;;;;;5056388;28;20468;-74
2022/06/29 07:23:27;;;;;;;7.70;7.00;;;;;;;;;;5058287;28;20482;-74
2022/06/29 07:25:53;;;;;;;8.10;7.40;;;;;;;;;;5059977;28;20524;-75
2022/06/29 07:28:20;;;;;;;8.43;7.60;;;;;;;;;;5058542;28;20474;-75
2022/06/29 07:30:46;;;;;;;8.40;7.60;;;;;;;;;;5058258;28;20463;-75
2022/06/29 07:33:12;;;;;;;9.17;7.07;;;;;;;;;;5059962;28;20463;-74
2022/06/29 07:35:39;;;;;;;11.60;7.23;;;;;;;;;;5061353;28;20447;-75
2022/06/29 07:38:05;;;;;;;8.83;7.93;;;;;;;;;;5057761;28;20460;-74
2022/06/29 07:40:34;;;;;;;11.90;7.23;;;;;;;;;;5059713;28;20481;-75
2022/06/29 07:43:00;;;;;;;7.30;6.60;;;;;;;;;;5059316;28;20472;-74
2022/06/29 07:45:27;;;;;;;6.90;6.40;;;;;;;;;;5060874;28;20468;-74
2022/06/29 07:47:53;;;;;;;7.60;6.20;;;;;;;;;;5058703;28;20434;-74
2022/06/29 07:50:19;;;;;;;7.67;6.97;;;;;;;;;;5057730;28;20483;-75
2022/06/29 07:52:46;;;;;;;8.00;6.90;;;;;;;;;;5060009;28;20483;-75
2022/06/29 07:55:12;;;;;;;6.70;6.17;;;;;;;;;;5059646;28;21157;-75
2022/06/29 07:57:40;;;;;;;7.23;6.53;;;;;;;;;;5059039;28;20816;-75
2022/06/29 08:00:07;;;;;;;6.50;6.00;;;;;;;;;;5059223;28;20447;-75
2022/06/29 08:02:33;;;;;;;8.30;6.27;;;;;;;;;;5058392;28;20471;-75
2022/06/29 08:05:01;;;;;;;7.20;6.50;;;;;;;;;;5060261;28;20450;-75
2022/06/29 08:07:28;;;;;;;9.00;8.10;;;;;;;;;;5056719;28;20850;-75
2022/06/29 08:09:54;;;;;;;7.60;6.43;;;;;;;;;;5058579;28;20467;-75
2022/06/29 08:12:20;;;;;;;8.07;7.27;;;;;;;;;;5060346;28;20475;-75
2022/06/29 08:14:48;;;;;;;6.83;6.23;;;;;;;;;;5059475;28;20471;-75
2022/06/29 08:17:14;;;;;;;6.67;5.80;;;;;;;;;;5058103;28;20446;-74
2022/06/29 08:19:41;;;;;;;6.47;5.90;;;;;;;;;;5060148;28;20427;-75
2022/06/29 08:22:07;;;;;;;6.57;5.90;;;;;;;;;;5058039;28;20826;-75
2022/06/29 08:24:33;;;;;;;6.30;5.70;;;;;;;;;;5056654;28;20470;-75
2022/06/29 08:27:00;;;;;;;8.03;7.23;;;;;;;;;;5058395;28;20545;-75
2022/06/29 08:29:26;;;;;;;8.30;7.50;;;;;;;;;;5059715;28;20421;-75
2022/06/29 08:31:54;;;;;;;6.70;5.80;;;;;;;;;;5057086;28;20494;-75
2022/06/29 08:34:20;;;;;;;6.77;6.23;;;;;;;;;;5059000;28;20454;-75
2022/06/29 08:36:46;;;;;;;8.40;6.60;;;;;;;;;;5059170;28;20450;-75
2022/06/29 08:39:13;;;;;;;6.97;6.30;;;;;;;;;;5058822;28;20482;-75
2022/06/29 08:41:40;;;;;;;6.90;6.30;;;;;;;;;;5057174;28;21033;-75
2022/06/29 08:44:07;;;;;;;6.30;5.70;;;;;;;;;;5059688;28;20439;-75
2022/06/29 08:46:33;;;;;;;6.77;6.13;;;;;;;;;;5059550;28;20452;-75
2022/06/29 08:49:02;;;;;;;7.20;6.60;;;;;;;;;;5058951;28;20534;-75
2022/06/29 08:51:32;;;;;;;8.60;6.20;;;;;;;;;;5060080;28;20463;-75
2022/06/29 08:53:59;;;;;;;6.53;5.93;;;;;;;;;;5061113;28;20447;-75
2022/06/29 08:56:26;;;;;;;7.47;6.77;;;;;;;;;;5057964;28;20459;-76
2022/06/29 08:58:52;;;;;;;8.93;6.10;;;;;;;;;;5057684;28;20479;-75
2022/06/29 09:01:18;;;;;;;6.70;6.10;;;;;;;;;;5057693;28;20502;-75
2022/06/29 09:03:45;;;;;;;8.57;6.20;;;;;;;;;;5058630;28;20468;-75
2022/06/29 09:06:13;;;;;;;6.90;6.30;;;;;;;;;;5059263;28;20443;-75
2022/06/29 09:08:39;;;;;;;8.67;7.60;;;;;;;;;;5057156;28;20859;-75
2022/06/29 09:11:21;;;;;;;8.23;7.53;;;;;;;;;;5057355;28;20484;-74
2022/06/29 09:13:47;;;;;;;8.20;7.40;;;;;;;;;;5059572;28;20466;-75
2022/06/29 09:16:14;;;;;;;8.07;7.37;;;;;;;;;;5058375;28;20447;-75
2022/06/29 09:18:43;;;;;;;8.77;7.70;;;;;;;;;;5056052;28;20920;-75
2022/06/29 09:21:09;;;;;;;7.20;6.60;;;;;;;;;;5057150;28;20982;-75
2022/06/29 09:23:36;;;;;;;8.77;7.73;;;;;;;;;;5055358;28;20474;-75
2022/06/29 09:26:03;;;;;;;8.00;7.30;;;;;;;;;;5058445;28;20439;-75
2022/06/29 09:28:31;;;;;;;8.20;7.60;;;;;;;;;;5058471;28;20458;-75
2022/06/29 09:30:58;;;;;;;8.03;7.10;;;;;;;;;;5057630;28;20462;-75
2022/06/29 09:33:25;;;;;;;8.10;7.30;;;;;;;;;;5055582;28;20466;-75
2022/06/29 09:36:05;;;;;;;8.30;7.60;;;;;;;;;;5058244;28;20463;-76
2022/06/29 09:38:31;;;;;;;9.23;8.43;;;;;;;;;;5062486;28;20473;-75
2022/06/29 09:41:00;;;;;;;8.70;7.80;;;;;;;;;;5061759;28;20833;-76
2022/06/29 09:43:26;;;;;;;8.97;8.17;;;;;;;;;;5062388;28;20481;-75
2022/06/29 09:45:53;;;;;;;7.93;7.33;;;;;;;;;;5061449;28;20453;-75
2022/06/29 09:48:21;;;;;;;8.00;7.30;;;;;;;;;;5062661;28;20991;-75
2022/06/29 09:50:48;;;;;;;8.30;7.50;;;;;;;;;;5058026;28;20485;-75
2022/06/29 09:53:15;;;;;;;7.20;6.70;;;;;;;;;;5061154;28;20476;-75
2022/06/29 09:55:41;;;;;;;7.60;7.00;;;;;;;;;;5061534;28;20947;-76
2022/06/29 09:58:09;;;;;;;7.87;7.13;;;;;;;;;;5061725;28;20467;-75
2022/06/29 10:03:20;;;;;;;8.23;7.53;;;;;;;;;;5061000;28;20471;-76
2022/06/29 10:05:59;;;;;;;7.77;6.83;;;;;;;;;;5057170;28;20830;-75
2022/06/29 10:08:26;;;;;;;8.30;7.50;;;;;;;;;;5062512;28;20474;-75
2022/06/29 10:10:57;;;;;;;9.90;6.63;;;;;;;;;;5062110;28;20482;-76
2022/06/29 10:13:39;;;;;;;8.60;7.90;;;;;;;;;;5061712;28;20470;-75
2022/06/29 10:16:09;;;;;;;8.00;7.30;;;;;;;;;;5060247;28;20548;-76
2022/06/29 10:18:51;;;;;;;7.50;6.90;;;;;;;;;;5060870;28;20471;-75
2022/06/29 10:21:19;;;;;;;8.20;7.60;;;;;;;;;;5062570;28;20464;-75
2022/06/29 10:23:46;;;;;;;7.53;6.80;;;;;;;;;;5062207;28;20467;-75
2022/06/29 10:26:32;;;;;;;7.93;6.20;;;;;;;;;;5062000;28;20440;-75
2022/06/29 10:29:20;;;;;;;9.30;6.93;;;;;;;;;;5061936;28;20863;-76
2022/06/29 10:32:01;;;;;;;7.40;6.70;;;;;;;;;;5060200;28;20479;-75
2022/06/29 10:34:38;;;;;;;7.10;6.40;;;;;;;;;;5057236;28;20462;-75
2022/06/29 10:37:05;;;;;;;8.23;6.10;;;;;;;;;;5059821;28;20511;-76
2022/06/29 10:39:51;;;;;;;6.33;5.63;;;;;;;;;;5061742;28;20479;-75
2022/06/29 10:45:17;;;;;;;6.87;6.27;;;;;;;;;;5059965;28;20447;-75
2022/06/29 10:47:44;;;;;;;7.20;6.70;;;;;;;;;;5059567;28;20483;-75
2022/06/29 10:50:24;;;;;;;7.70;6.40;;;;;;;;;;5059591;28;21005;-76
2022/06/29 10:52:51;;;;;;;7.10;6.50;;;;;;;;;;5061826;28;20467;-76
2022/06/29 10:55:18;;;;;;;7.53;6.80;;;;;;;;;;5061005;28;20443;-76
2022/06/29 10:57:45;;;;;;;6.90;6.40;;;;;;;;;;5059989;28;20472;-75
2022/06/29 11:00:15;;;;;;;6.83;6.20;;;;;;;;;;5060273;28;20483;-76
2022/06/29 11:02:44;;;;;;;7.23;6.63;;;;;;;;;;5060916;28;20472;-75
2022/06/29 11:05:10;;;;;;;7.13;6.43;;;;;;;;;;5058863;28;20731;-76
2022/06/29 11:13:04;;;;;;;6.40;5.90;;;;;;;;;;5059350;28;20493;-75
2022/06/29 11:15:41;;;;;;;6.37;5.77;;;;;;;;;;5061402;28;20468;-76
2022/06/29 11:18:11;;;;;;;6.17;5.57;;;;;;;;;;5060536;28;20477;-76
2022/06/29 11:20:38;;;;;;;6.87;6.37;;;;;;;;;;5059431;28;20464;-75
2022/06/29 11:23:04;;;;;;;6.83;6.23;;;;;;;;;;5059540;28;20553;-76
2022/06/29 11:25:35;;;;;;;6.50;6.00;;;;;;;;;;5061176;28;20467;-76
2022/06/29 11:28:02;;;;;;;6.47;6.00;;;;;;;;;;5058595;28;21017;-75
2022/06/29 11:30:28;;;;;;;6.40;5.90;;;;;;;;;;5058799;28;20540;-75
2022/06/29 11:32:55;;;;;;;5.80;5.40;;;;;;;;;;5060108;28;20478;-76
2022/06/29 11:35:23;;;;;;;5.47;4.93;;;;;;;;;;5060210;28;20452;-76
2022/06/29 11:37:50;;;;;;;7.03;5.33;;;;;;;;;;5060253;28;20474;-75
2022/06/29 11:40:20;;;;;;;6.33;5.83;;;;;;;;;;5059814;28;20846;-75
2022/06/29 11:45:36;;;;;;;6.67;5.93;;;;;;;;;;5058767;28;20434;-76
2022/06/29 11:48:10;;;;;;;5.60;5.10;;;;;;;;;;5058527;28;20518;-76
2022/06/29 11:50:42;;;;;;;10.43;5.80;;;;;;;;;;5060300;28;20464;-75
2022/06/29 11:53:09;;;;;;;6.70;5.73;;;;;;;;;;5060123;28;20516;-75
2022/06/29 11:55:38;;;;;;;10.77;6.80;;;;;;;;;;5056966;28;20458;-76
2022/06/29 11:58:04;;;;;;;6.17;5.70;;;;;;;;;;5058156;28;20998;-76
2022/06/29 12:00:31;;;;;;;5.57;5.07;;;;;;;;;;5074550;22;20450;-76
2022/06/29 12:02:58;;;;;;;5.73;5.03;;;;;;;;;;5058763;28;20459;-74
2022/06/29 12:05:24;;;;;;;6.10;5.60;;;;;;;;;;5059873;28;20974;-74
2022/06/29 12:07:52;;;;;;;5.50;4.90;;;;;;;;;;5059651;28;20466;-74
2022/06/29 12:10:18;;;;;;;4.77;4.33;;;;;;;;;;5058095;28;20452;-74
2022/06/29 12:12:44;;;;;;;5.70;5.20;;;;;;;;;;5058230;28;20467;-74
2022/06/29 12:15:13;;;;;;;5.00;4.47;;;;;;;;;;5059945;28;20450;-74
2022/06/29 12:17:39;;;;;;;6.67;4.73;;;;;;;;;;5060888;28;21002;-74
2022/06/29 12:20:06;;;;;;;5.57;4.30;;;;;;;;;;5059754;28;20490;-74
2022/06/29 12:22:33;;;;;;;5.00;4.50;;;;;;;;;;5059988;28;20548;-74
2022/06/29 12:25:01;;;;;;;4.80;4.40;;;;;;;;;;5058221;28;20467;-74
2022/06/29 12:27:28;;;;;;;5.47;4.77;;;;;;;;;;5058907;28;20490;-74
2022/06/29 12:29:54;;;;;;;6.50;4.47;;;;;;;;;;5060149;28;20449;-74
2022/06/29 12:32:21;;;;;;;3.93;3.63;;;;;;;;;;5057828;28;20462;-74
2022/06/29 12:34:47;;;;;;;4.40;4.00;;;;;;;;;;5061357;28;20474;-73
2022/06/29 12:37:14;;;;;;;8.03;4.17;;;;;;;;;;5058663;28;20838;-74
2022/06/29 12:39:40;;;;;;;4.17;3.80;;;;;;;;;;5060351;28;20557;-74
2022/06/29 12:42:08;;;;;;;4.93;4.47;;;;;;;;;;5056968;28;20975;-74
2022/06/29 12:44:34;;;;;;;5.33;4.20;;;;;;;;;;5058240;28;20462;-74
2022/06/29 12:47:01;;;;;;;5.63;4.40;;;;;;;;;;5057335;28;20459;-74
2022/06/29 12:49:27;;;;;;;6.33;4.30;;;;;;;;;;5057569;28;20436;-74
2022/06/29 12:51:53;;;;;;;4.73;4.13;;;;;;;;;;5060323;28;20468;-73
2022/06/29 12:54:20;;;;;;;4.43;4.03;;;;;;;;;;5059932;28;20474;-74
2022/06/29 12:56:46;;;;;;;5.20;4.80;;;;;;;;;;5057864;28;20462;-73
2022/06/29 12:59:14;;;;;;;5.37;4.27;;;;;;;;;;5057423;28;20482;-74
2022/06/29 13:01:40;;;;;;;4.90;3.93;;;;;;;;;;5056265;28;20490;-74
2022/06/29 13:04:07;;;;;;;5.27;4.27;;;;;;;;;;5059458;28;20818;-74
2022/06/29 13:06:33;;;;;;;5.73;4.40;;;;;;;;;;5058228;28;20463;-74
2022/06/29 13:08:59;;;;;;;4.60;4.10;;;;;;;;;;5059601;28;20451;-74
2022/06/29 13:11:26;;;;;;;4.33;3.93;;;;;;;;;;5057965;28;20475;-74
2022/06/29 13:13:52;;;;;;;4.00;3.60;;;;;;;;;;5058810;28;20463;-74
2022/06/29 13:16:20;;;;;;;4.80;4.30;;;;;;;;;;5055344;28;20534;-74
2022/06/29 13:18:46;;;;;;;4.27;3.80;;;;;;;;;;5058545;28;20998;-74
2022/06/29 13:21:12;;;;;;;4.27;3.83;;;;;;;;;;5057262;28;20490;-74
2022/06/29 13:23:39;;;;;;;4.23;3.70;;;;;;;;;;5058593;28;20463;-74
2022/06/29 13:26:07;;;;;;;4.40;4.10;;;;;;;;;;5058226;28;20443;-74
2022/06/29 13:28:33;;;;;;;4.07;3.77;;;;;;;;;;5058572;28;20486;-74
2022/06/29 13:31:00;;;;;;;4.40;3.90;;;;;;;;;;5058059;28;20547;-74
2022/06/29 13:33:27;;;;;;;5.70;4.50;;;;;;;;;;5056292;28;20472;-74
2022/06/29 13:35:54;;;;;;;5.70;4.20;;;;;;;;;;5057063;28;20439;-74
2022/06/29 13:38:20;;;;;;;4.57;4.27;;;;;;;;;;5057592;28;21003;-74
2022/06/29 13:40:47;;;;;;;4.00;3.70;;;;;;;;;;5059679;28;20466;-73
2022/06/29 13:43:13;;;;;;;3.90;3.60;;;;;;;;;;5058768;28;20484;-74
2022/06/29 13:45:39;;;;;;;4.80;4.50;;;;;;;;;;5057169;28;20781;-74
2022/06/29 13:48:06;;;;;;;4.53;4.13;;;;;;;;;;5055713;28;20482;-74
2022/06/29 13:50:33;;;;;;;6.93;4.47;;;;;;;;;;5057864;28;20482;-74
2022/06/29 13:53:00;;;;;;;3.60;3.40;;;;;;;;;;5056958;28;20468;-74
2022/06/29 13:55:26;;;;;;;4.40;4.00;;;;;;;;;;5059399;28;20933;-74
2022/06/29 13:57:52;;;;;;;4.63;4.33;;;;;;;;;;5057560;28;21037;-74
2022/06/29 14:00:19;;;;;;;3.70;3.40;;;;;;;;;;5058112;28;20483;-74
2022/06/29 14:02:45;;;;;;;4.10;3.80;;;;;;;;;;5056285;28;20856;-74
2022/06/29 14:05:11;;;;;;;4.03;3.70;;;;;;;;;;5056788;28;20446;-74
2022/06/29 14:07:39;;;;;;;4.97;3.53;;;;;;;;;;5057497;28;20846;-74
2022/06/29 14:10:05;;;;;;;4.30;3.57;;;;;;;;;;5056611;28;21193;-74
2022/06/29 14:12:32;;;;;;;5.17;3.80;;;;;;;;;;5057984;28;21001;-74
2022/06/29 14:14:58;;;;;;;4.07;3.63;;;;;;;;;;5056899;28;20451;-74
2022/06/29 14:17:24;;;;;;;3.53;3.23;;;;;;;;;;5058181;28;20474;-74
2022/06/29 14:19:51;;;;;;;3.43;3.13;;;;;;;;;;5055604;28;20514;-74
2022/06/29 14:22:17;;;;;;;5.07;3.50;;;;;;;;;;5059904;28;20478;-74
2022/06/29 14:24:45;;;;;;;3.57;3.27;;;;;;;;;;5062142;28;20819;-74
2022/06/29 14:27:11;;;;;;;6.57;4.37;;;;;;;;;;5061643;28;20491;-74
2022/06/29 14:29:39;;;;;;;3.23;2.90;;;;;;;;;;5062694;28;20820;-74
2022/06/29 14:32:05;;;;;;;5.33;3.47;;;;;;;;;;5061784;28;20470;-74
2022/06/29 14:34:33;;;;;;;3.80;3.50;;;;;;;;;;5062484;28;20443;-74
2022/06/29 14:36:59;;;;;;;4.30;3.80;;;;;;;;;;5060045;28;20465;-74
2022/06/29 14:39:25;;;;;;;;;;;;;;;;;;5059712;28;20308;-74
2022/06/29 14:41:52;;;;;;;;;;;;;;;;;;5061044;28;19924;-74
2022/06/29 14:44:18;;;;;;;;;;;;;;;;;;5063533;28;19925;-74
2022/06/29 14:46:44;;;;;;;;;;;;;;;;;;5060475;28;19924;-74
2022/06/29 14:49:10;;;;;;;;;;;;;;;;;;5061250;28;19928;-74
2022/06/29 14:51:36;;;;;;;;;;;;;;;;;;5061486;28;19924;-74
2022/06/29 14:54:02;;;;;;;;;;;;;;;;;;5059635;28;19927;-74
2022/06/29 14:56:28;;;;;;;;;;;;;;;;;;5059720;28;19921;-74
2022/06/29 14:58:55;;;;;;;;;;;;;;;;;;5060318;28;20403;-74
2022/06/29 15:01:21;;;;;;;;;;;;;;;;;;5060752;28;19921;-74